Time;durP1;ratioP1;P1;durP2;ratioP2;P2;SDS_P1;SDS_P2;PMS_P1;PMS_P2;Temp;Humidity;BMP_temperature;BMP_pressure;BME280_temperature;BME280_humidity;BME280_pressure;Samples;Min_cycle;Max_cycle;Signal;HPM_P1;HPM_P2
2021/11/24 00:01:22;;;;;;;;;;;;;;;;;;5037887;28;19929;-66
2021/11/24 00:03:49;;;;;;;;;;;;;;;;;;5040978;28;19929;-66
2021/11/24 00:06:16;;;;;;;;;;;;;;;;;;5036433;28;20305;-66
2021/11/24 00:08:42;;;;;;;;;;;;;;;;;;5045549;28;19935;-67
2021/11/24 00:11:09;;;;;;;;;;;;;;;;;;5039515;28;19935;-66
2021/11/24 00:13:36;;;;;;;;;;;;;;;;;;5040651;28;19925;-66
2021/11/24 00:16:03;;;;;;;;;;;;;;;;;;5040559;28;19925;-66
2021/11/24 00:18:30;;;;;;;;;;;;;;;;;;5036604;28;19932;-66
2021/11/24 00:20:57;;;;;;;;;;;;;;;;;;5041391;28;19931;-66
2021/11/24 00:23:24;;;;;;;;;;;;;;;;;;5040658;28;20423;-66
2021/11/24 00:25:51;;;;;;;;;;;;;;;;;;5031647;28;20324;-66
2021/11/24 00:28:18;;;;;;;;;;;;;;;;;;5046836;28;19943;-66
2021/11/24 00:30:47;;;;;;;;;;;;;;;;;;5040708;28;19925;-66
2021/11/24 00:33:13;;;;;;;;;;;;;;;;;;5044428;28;19931;-66
2021/11/24 00:35:40;;;;;;;;;;;;;;;;;;5032702;28;19932;-66
2021/11/24 00:38:07;;;;;;;;;;;;;;;;;;5044138;28;20296;-66
2021/11/24 00:40:35;;;;;;;;;;;;;;;;;;5050523;28;19925;-66
2021/11/24 00:43:02;;;;;;;;;;;;;;;;;;5040774;28;20530;-66
2021/11/24 00:45:29;;;;;;;;;;;;;;;;;;5039900;28;19937;-66
2021/11/24 00:47:56;;;;;;;;;;;;;;;;;;5033540;28;19932;-66
2021/11/24 00:50:23;;;;;;;;;;;;;;;;;;5038224;28;19929;-66
2021/11/24 00:52:52;;;;;;;;;;;;;;;;;;5040427;28;19925;-66
2021/11/24 00:55:19;;;;;;;;;;;;;;;;;;5036999;28;20454;-65
2021/11/24 00:57:46;;;;;;;;;;;;;;;;;;5040141;28;19924;-65
2021/11/24 01:00:15;;;;;;;;;;;;;;;;;;5040652;28;19925;-65
2021/11/24 01:02:42;;;;;;;;;;;;;;;;;;5034779;28;19933;-65
2021/11/24 01:05:09;;;;;;;;;;;;;;;;;;5041677;28;19932;-66
2021/11/24 01:07:36;;;;;;;;;;;;;;;;;;5035724;28;19926;-66
2021/11/24 01:10:03;;;;;;;;;;;;;;;;;;5041249;28;19931;-66
2021/11/24 01:12:29;;;;;;;;;;;;;;;;;;5044550;28;19929;-66
2021/11/24 01:14:56;;;;;;;;;;;;;;;;;;5041713;28;19924;-65
2021/11/24 01:17:23;;;;;;;;;;;;;;;;;;5045087;28;19931;-67
2021/11/24 01:19:50;;;;;;;;;;;;;;;;;;5047954;28;19976;-66
2021/11/24 01:22:17;;;;;;;;;;;;;;;;;;5035181;28;19936;-66
2021/11/24 01:24:44;;;;;;;;;;;;;;;;;;5047659;28;19932;-66
2021/11/24 01:27:11;;;;;;;;;;;;;;;;;;5040546;28;19929;-66
2021/11/24 01:29:38;;;;;;;;;;;;;;;;;;5054791;28;19931;-66
2021/11/24 01:32:05;;;;;;;;;;;;;;;;;;5047312;28;19976;-66
2021/11/24 01:34:32;;;;;;;;;;;;;;;;;;5041008;28;19936;-66
2021/11/24 01:36:59;;;;;;;;;;;;;;;;;;5047473;28;19929;-66
2021/11/24 01:39:26;;;;;;;;;;;;;;;;;;5035342;28;20112;-66
2021/11/24 01:41:53;;;;;;;;;;;;;;;;;;5046082;28;19925;-66
2021/11/24 01:44:21;;;;;;;;;;;;;;;;;;5043426;28;20629;-66
2021/11/24 01:46:48;;;;;;;;;;;;;;;;;;5047196;28;19929;-66
2021/11/24 01:49:15;;;;;;;;;;;;;;;;;;5055357;28;19928;-66
2021/11/24 01:51:42;;;;;;;;;;;;;;;;;;5041059;28;19925;-66
2021/11/24 01:54:09;;;;;;;;;;;;;;;;;;5034767;28;19932;-66
2021/11/24 01:56:35;;;;;;;;;;;;;;;;;;5037566;28;19926;-66
2021/11/24 01:59:02;;;;;;;;;;;;;;;;;;5043961;28;19924;-66
2021/11/24 02:01:29;;;;;;;;;;;;;;;;;;5042308;28;19944;-66
2021/11/24 02:03:56;;;;;;;;;;;;;;;;;;5044490;28;20411;-65
2021/11/24 02:06:23;;;;;;;;;;;;;;;;;;5037598;28;19947;-66
2021/11/24 02:08:50;;;;;;;;;;;;;;;;;;5036372;28;19925;-65
2021/11/24 02:11:17;;;;;;;;;;;;;;;;;;5040609;28;19925;-67
2021/11/24 02:13:44;;;;;;;;;;;;;;;;;;5041761;28;19939;-66
2021/11/24 02:16:11;;;;;;;;;;;;;;;;;;5042494;28;20376;-67
2021/11/24 02:18:38;;;;;;;;;;;;;;;;;;5040964;28;20296;-65
2021/11/24 02:21:05;;;;;;;;;;;;;;;;;;5044405;28;19925;-66
2021/11/24 02:23:32;;;;;;;;;;;;;;;;;;5030599;28;19940;-67
2021/11/24 02:25:59;;;;;;;;;;;;;;;;;;5031564;28;19936;-67
2021/11/24 02:28:26;;;;;;;;;;;;;;;;;;5032072;28;19932;-66
2021/11/24 02:30:53;;;;;;;;;;;;;;;;;;5031275;28;19936;-67
2021/11/24 02:33:20;;;;;;;;;;;;;;;;;;5034578;28;19950;-66
2021/11/24 02:35:47;;;;;;;;;;;;;;;;;;5031757;28;19925;-65
2021/11/24 02:38:14;;;;;;;;;;;;;;;;;;5038720;28;19932;-66
2021/11/24 02:40:41;;;;;;;;;;;;;;;;;;5053052;28;19931;-66
2021/11/24 02:43:09;;;;;;;;;;;;;;;;;;5034856;28;19933;-65
2021/11/24 02:45:36;;;;;;;;;;;;;;;;;;5038389;28;19929;-67
2021/11/24 02:48:03;;;;;;;;;;;;;;;;;;5044129;28;20380;-66
2021/11/24 02:50:30;;;;;;;;;;;;;;;;;;5034671;28;19925;-65
2021/11/24 02:52:57;;;;;;;;;;;;;;;;;;5044853;28;19925;-65
2021/11/24 02:55:24;;;;;;;;;;;;;;;;;;5035958;28;19935;-65
2021/11/24 02:57:51;;;;;;;;;;;;;;;;;;5036915;28;19929;-65
2021/11/24 03:00:17;;;;;;;;;;;;;;;;;;5041461;28;19925;-66
2021/11/24 03:02:44;;;;;;;;;;;;;;;;;;5039024;28;19936;-65
2021/11/24 03:05:11;;;;;;;;;;;;;;;;;;5045488;28;19925;-65
2021/11/24 03:07:38;;;;;;;;;;;;;;;;;;5041603;28;20299;-67
2021/11/24 03:10:05;;;;;;;;;;;;;;;;;;5035613;28;19929;-66
2021/11/24 03:12:32;;;;;;;;;;;;;;;;;;5041109;28;20113;-67
2021/11/24 03:14:59;;;;;;;;;;;;;;;;;;5038311;28;19932;-67
2021/11/24 03:17:26;;;;;;;;;;;;;;;;;;5045400;28;20037;-65
2021/11/24 03:19:54;;;;;;;;;;;;;;;;;;5036066;28;19925;-67
2021/11/24 03:22:22;;;;;;;;;;;;;;;;;;5050699;28;20312;-65
2021/11/24 03:24:54;;;;;;;;;;;;;;;;;;5049143;28;19929;-65
2021/11/24 03:27:21;;;;;;;;;;;;;;;;;;5039141;28;19984;-65
2021/11/24 03:29:48;;;;;;;;;;;;;;;;;;5037827;28;21643;-66
2021/11/24 03:32:15;;;;;;;;;;;;;;;;;;5043450;28;19925;-70
2021/11/24 03:34:42;;;;;;;;;;;;;;;;;;5037514;28;19996;-66
2021/11/24 03:37:09;;;;;;;;;;;;;;;;;;5036833;28;19925;-66
2021/11/24 03:39:36;;;;;;;;;;;;;;;;;;5043832;28;19932;-66
2021/11/24 03:42:03;;;;;;;;;;;;;;;;;;5038429;28;20934;-66
2021/11/24 03:44:30;;;;;;;;;;;;;;;;;;5029773;28;19940;-66
2021/11/24 03:46:57;;;;;;;;;;;;;;;;;;5032410;28;19931;-66
2021/11/24 03:49:24;;;;;;;;;;;;;;;;;;5036492;28;20312;-66
2021/11/24 03:51:51;;;;;;;;;;;;;;;;;;5041306;28;19932;-66
2021/11/24 03:54:18;;;;;;;;;;;;;;;;;;5042028;28;19925;-66
2021/11/24 03:56:45;;;;;;;;;;;;;;;;;;5040417;28;19925;-69
2021/11/24 03:59:12;;;;;;;;;;;;;;;;;;5040281;28;19925;-66
2021/11/24 04:01:38;;;;;;;;;;;;;;;;;;5041850;28;19924;-66
2021/11/24 04:04:05;;;;;;;;;;;;;;;;;;5043809;28;19952;-66
2021/11/24 04:06:32;;;;;;;;;;;;;;;;;;5036568;28;19925;-66
2021/11/24 04:09:00;;;;;;;;;;;;;;;;;;5034024;28;20588;-66
2021/11/24 04:11:27;;;;;;;;;;;;;;;;;;5040303;28;19987;-66
2021/11/24 04:13:54;;;;;;;;;;;;;;;;;;5037978;28;20397;-66
2021/11/24 04:16:21;;;;;;;;;;;;;;;;;;5030780;28;19929;-66
2021/11/24 04:18:48;;;;;;;;;;;;;;;;;;5045711;28;19933;-66
2021/11/24 04:21:15;;;;;;;;;;;;;;;;;;5045010;28;19929;-66
2021/11/24 04:23:42;;;;;;;;;;;;;;;;;;5039268;28;19925;-66
2021/11/24 04:26:09;;;;;;;;;;;;;;;;;;5030974;28;19947;-66
2021/11/24 04:28:36;;;;;;;;;;;;;;;;;;5050698;28;20291;-66
2021/11/24 04:31:05;;;;;;;;;;;;;;;;;;5039441;28;19932;-66
2021/11/24 04:33:32;;;;;;;;;;;;;;;;;;5044518;28;19913;-67
2021/11/24 04:35:59;;;;;;;;;;;;;;;;;;5058729;28;19971;-66
2021/11/24 04:38:27;;;;;;;;;;;;;;;;;;5056346;28;20251;-65
2021/11/24 04:40:55;;;;;;;;;;;;;;;;;;5053418;28;20377;-68
2021/11/24 04:43:25;;;;;;;;;;;;;;;;;;5058539;28;20395;-66
2021/11/24 04:45:52;;;;;;;;;;;;;;;;;;5051201;28;19924;-67
2021/11/24 04:48:19;;;;;;;;;;;;;;;;;;5059931;28;19935;-65
2021/11/24 04:50:46;;;;;;;;;;;;;;;;;;5055664;28;19933;-67
2021/11/24 04:53:13;;;;;;;;;;;;;;;;;;5059465;28;20403;-66
2021/11/24 04:55:40;;;;;;;;;;;;;;;;;;5059780;28;19925;-68
2021/11/24 04:58:07;;;;;;;;;;;;;;;;;;5058356;28;19931;-66
2021/11/24 05:00:34;;;;;;;;;;;;;;;;;;5060520;28;19951;-65
2021/11/24 05:03:01;;;;;;;;;;;;;;;;;;5066670;28;19936;-67
2021/11/24 05:05:29;;;;;;;;;;;;;;;;;;5058444;28;19925;-67
2021/11/24 05:07:56;;;;;;;;;;;;;;;;;;5058428;28;20027;-66
2021/11/24 05:10:23;;;;;;;;;;;;;;;;;;5060888;28;19960;-65
2021/11/24 05:12:50;;;;;;;;;;;;;;;;;;5054250;28;19935;-68
2021/11/24 05:15:19;;;;;;;;;;;;;;;;;;5062200;28;20304;-67
2021/11/24 05:17:50;;;;;;;;;;;;;;;;;;5056958;28;19924;-67
2021/11/24 05:20:20;;;;;;;;;;;;;;;;;;5057884;28;19925;-67
2021/11/24 05:22:48;;;;;;;;;;;;;;;;;;5054059;28;19925;-68
2021/11/24 05:25:16;;;;;;;;;;;;;;;;;;5056205;28;19925;-68
2021/11/24 05:27:43;;;;;;;;;;;;;;;;;;5062039;28;20013;-65
2021/11/24 05:30:10;;;;;;;;;;;;;;;;;;5063087;28;19964;-68
2021/11/24 05:32:37;;;;;;;;;;;;;;;;;;5057746;28;20008;-67
2021/11/24 05:35:04;;;;;;;;;;;;;;;;;;5064599;28;19932;-67
2021/11/24 05:37:31;;;;;;;;;;;;;;;;;;5057778;28;20035;-65
2021/11/24 05:39:58;;;;;;;;;;;;;;;;;;5064546;28;19932;-67
2021/11/24 05:42:26;;;;;;;;;;;;;;;;;;5059407;28;20468;-66
2021/11/24 05:45:02;;;;;;;;;;;;;;;;;;5062844;28;19957;-68
2021/11/24 05:50:14;;;;;;;;;;;;;;;;;;5058467;28;19959;-65
2021/11/24 05:52:41;;;;;;;;;;;;;;;;;;5065724;28;19929;-67
2021/11/24 05:55:08;;;;;;;;;;;;;;;;;;5060610;28;19990;-66
2021/11/24 05:57:35;;;;;;;;;;;;;;;;;;5053701;28;19984;-68
2021/11/24 06:00:02;;;;;;;;;;;;;;;;;;5055013;28;20320;-68
2021/11/24 06:02:29;;;;;;;;;;;;;;;;;;5061308;28;19925;-68
2021/11/24 06:04:56;;;;;;;;;;;;;;;;;;5051691;28;19933;-67
2021/11/24 06:07:23;;;;;;;;;;;;;;;;;;5064470;28;19983;-65
2021/11/24 06:09:50;;;;;;;;;;;;;;;;;;5057773;28;19931;-69
2021/11/24 06:12:17;;;;;;;;;;;;;;;;;;5058838;28;20028;-67
2021/11/24 06:14:44;;;;;;;;;;;;;;;;;;5051270;28;19929;-69
2021/11/24 06:17:11;;;;;;;;;;;;;;;;;;5051624;28;19991;-68
2021/11/24 06:19:40;;;;;;;;;;;;;;;;;;5055362;28;20028;-68
2021/11/24 06:22:08;;;;;;;;;;;;;;;;;;5059963;28;19925;-66
2021/11/24 06:24:35;;;;;;;;;;;;;;;;;;5058887;28;19947;-67
2021/11/24 06:27:02;;;;;;;;;;;;;;;;;;5058265;28;19963;-67
2021/11/24 06:29:29;;;;;;;;;;;;;;;;;;5059682;28;19975;-66
2021/11/24 06:31:56;;;;;;;;;;;;;;;;;;5046576;28;19964;-66
2021/11/24 06:34:23;;;;;;;;;;;;;;;;;;5045375;28;19932;-66
2021/11/24 06:36:53;;;;;;;;;;;;;;;;;;5052274;28;19929;-66
2021/11/24 06:39:20;;;;;;;;;;;;;;;;;;5035308;28;19959;-66
2021/11/24 06:41:47;;;;;;;;;;;;;;;;;;5040932;28;19932;-66
2021/11/24 06:44:14;;;;;;;;;;;;;;;;;;5033400;28;19925;-66
2021/11/24 06:46:41;;;;;;;;;;;;;;;;;;5032276;28;20331;-66
2021/11/24 06:49:08;;;;;;;;;;;;;;;;;;5039906;28;19931;-65
2021/11/24 06:51:35;;;;;;;;;;;;;;;;;;5037642;28;19925;-65
2021/11/24 06:54:02;;;;;;;;;;;;;;;;;;5031752;28;19933;-65
2021/11/24 06:56:29;;;;;;;;;;;;;;;;;;5036172;28;19929;-65
2021/11/24 06:58:56;;;;;;;;;;;;;;;;;;5037269;28;20004;-65
2021/11/24 07:01:22;;;;;;;;;;;;;;;;;;5043577;28;19930;-65
2021/11/24 07:03:49;;;;;;;;;;;;;;;;;;5035046;28;19925;-65
2021/11/24 07:06:16;;;;;;;;;;;;;;;;;;5031392;28;20313;-66
2021/11/24 07:08:43;;;;;;;;;;;;;;;;;;5031126;28;19933;-65
2021/11/24 07:11:10;;;;;;;;;;;;;;;;;;5042384;28;19925;-65
2021/11/24 07:13:37;;;;;;;;;;;;;;;;;;5036371;28;19925;-65
2021/11/24 07:16:04;;;;;;;;;;;;;;;;;;5037218;28;20407;-65
2021/11/24 07:18:31;;;;;;;;;;;;;;;;;;5032902;28;20389;-65
2021/11/24 07:20:58;;;;;;;;;;;;;;;;;;5036225;28;20377;-65
2021/11/24 07:23:25;;;;;;;;;;;;;;;;;;5040551;28;19925;-65
2021/11/24 07:25:52;;;;;;;;;;;;;;;;;;5034271;28;21746;-65
2021/11/24 07:28:19;;;;;;;;;;;;;;;;;;5036521;28;20400;-65
2021/11/24 07:30:46;;;;;;;;;;;;;;;;;;5040854;28;19925;-65
2021/11/24 07:33:13;;;;;;;;;;;;;;;;;;5035759;28;19931;-65
2021/11/24 07:35:40;;;;;;;;;;;;;;;;;;5039924;28;19936;-65
2021/11/24 07:38:06;;;;;;;;;;;;;;;;;;5036212;28;20321;-66
2021/11/24 07:40:33;;;;;;;;;;;;;;;;;;5032242;28;19945;-66
2021/11/24 07:43:00;;;;;;;;;;;;;;;;;;5032697;28;19975;-66
2021/11/24 07:45:27;;;;;;;;;;;;;;;;;;5039961;28;19925;-66
2021/11/24 07:47:54;;;;;;;;;;;;;;;;;;5057832;28;19929;-66
2021/11/24 07:50:21;;;;;;;;;;;;;;;;;;5039643;28;21521;-66
2021/11/24 07:52:48;;;;;;;;;;;;;;;;;;5034577;28;19947;-66
2021/11/24 07:55:15;;;;;;;;;;;;;;;;;;5034978;28;20377;-66
2021/11/24 07:57:42;;;;;;;;;;;;;;;;;;5036041;28;20404;-66
2021/11/24 08:00:09;;;;;;;;;;;;;;;;;;5040997;28;19935;-66
2021/11/24 08:02:36;;;;;;;;;;;;;;;;;;5042382;28;19983;-66
2021/11/24 08:05:04;;;;;;;;;;;;;;;;;;5039458;28;19983;-66
2021/11/24 08:07:31;;;;;;;;;;;;;;;;;;5041869;28;19929;-66
2021/11/24 08:09:58;;;;;;;;;;;;;;;;;;5038767;28;19968;-67
2021/11/24 08:12:25;;;;;;;;;;;;;;;;;;5041721;28;19925;-66
2021/11/24 08:14:53;;;;;;;;;;;;;;;;;;5040238;28;19947;-66
2021/11/24 08:17:20;;;;;;;;;;;;;;;;;;5044379;28;19993;-66
2021/11/24 08:19:47;;;;;;;;;;;;;;;;;;5034981;28;20389;-66
2021/11/24 08:22:14;;;;;;;;;;;;;;;;;;5043398;28;19931;-66
2021/11/24 08:24:41;;;;;;;;;;;;;;;;;;5045111;28;20019;-66
2021/11/24 08:27:08;;;;;;;;;;;;;;;;;;5044623;28;19925;-66
2021/11/24 08:29:35;;;;;;;;;;;;;;;;;;5045179;28;19997;-66
2021/11/24 08:32:02;;;;;;;;;;;;;;;;;;5044644;28;19939;-66
2021/11/24 08:34:29;;;;;;;;;;;;;;;;;;5060797;28;19976;-66
2021/11/24 08:36:56;;;;;;;;;;;;;;;;;;5055409;28;20011;-66
2021/11/24 08:39:25;;;;;;;;;;;;;;;;;;5047274;28;19926;-66
2021/11/24 08:41:52;;;;;;;;;;;;;;;;;;5052314;28;19979;-66
2021/11/24 08:44:19;;;;;;;;;;;;;;;;;;5043665;28;19924;-66
2021/11/24 08:46:46;;;;;;;;;;;;;;;;;;5042805;28;19925;-66
2021/11/24 08:49:13;;;;;;;;;;;;;;;;;;5049942;28;20027;-66
2021/11/24 08:51:40;;;;;;;;;;;;;;;;;;5041394;28;21199;-66
2021/11/24 08:54:07;;;;;;;;;;;;;;;;;;5043181;28;19926;-66
2021/11/24 08:56:34;;;;;;;;;;;;;;;;;;5050465;28;19928;-66
2021/11/24 08:59:03;;;;;;;;;;;;;;;;;;5047926;28;19936;-66
2021/11/24 09:01:30;;;;;;;;;;;;;;;;;;5046511;28;20024;-65
2021/11/24 09:03:58;;;;;;;;;;;;;;;;;;5047455;28;20024;-65
2021/11/24 09:06:25;;;;;;;;;;;;;;;;;;5049573;28;19930;-65
2021/11/24 09:08:51;;;;;;;;;;;;;;;;;;5048535;28;19929;-65
2021/11/24 09:11:18;;;;;;;;;;;;;;;;;;5047939;28;19925;-65
2021/11/24 09:13:45;;;;;;;;;;;;;;;;;;5041076;28;20382;-65
2021/11/24 09:16:12;;;;;;;;;;;;;;;;;;5045885;28;19925;-65
2021/11/24 09:18:39;;;;;;;;;;;;;;;;;;5047091;28;20399;-65
2021/11/24 09:21:06;;;;;;;;;;;;;;;;;;5046818;28;19929;-65
2021/11/24 09:23:33;;;;;;;;;;;;;;;;;;5067064;28;19968;-65
2021/11/24 09:26:14;;;;;;;;;;;;;;;;;;5054016;28;19925;-66
2021/11/24 09:28:41;;;;;;;;;;;;;;;;;;5050468;28;20283;-65
2021/11/24 09:31:08;;;;;;;;;;;;;;;;;;5044786;28;19925;-65
2021/11/24 09:33:37;;;;;;;;;;;;;;;;;;5044073;28;19948;-65
2021/11/24 09:36:04;;;;;;;;;;;;;;;;;;5042213;28;19924;-65
2021/11/24 09:38:31;;;;;;;;;;;;;;;;;;5040972;28;19925;-65
2021/11/24 09:40:58;;;;;;;;;;;;;;;;;;5041686;28;19925;-65
2021/11/24 09:43:25;;;;;;;;;;;;;;;;;;5050573;28;19932;-65
2021/11/24 09:45:52;;;;;;;;;;;;;;;;;;5046600;28;20040;-65
2021/11/24 09:48:19;;;;;;;;;;;;;;;;;;5046844;28;19955;-65
2021/11/24 09:50:47;;;;;;;;;;;;;;;;;;5045522;28;20295;-65
2021/11/24 09:53:14;;;;;;;;;;;;;;;;;;5037142;28;19933;-65
2021/11/24 09:55:41;;;;;;;;;;;;;;;;;;5042080;28;19925;-66
2021/11/24 09:58:08;;;;;;;;;;;;;;;;;;5037938;28;19925;-65
2021/11/24 10:00:35;;;;;;;;;;;;;;;;;;5042372;28;19925;-66
2021/11/24 10:03:01;;;;;;;;;;;;;;;;;;5037016;28;20270;-65
2021/11/24 10:05:28;;;;;;;;;;;;;;;;;;5040862;28;19925;-65
2021/11/24 10:07:55;;;;;;;;;;;;;;;;;;5040351;28;20381;-66
2021/11/24 10:10:22;;;;;;;;;;;;;;;;;;5049140;28;19935;-66
2021/11/24 10:12:49;;;;;;;;;;;;;;;;;;5039867;28;19929;-66
2021/11/24 10:15:16;;;;;;;;;;;;;;;;;;5046225;28;19924;-67
2021/11/24 10:17:43;;;;;;;;;;;;;;;;;;5039289;28;19925;-67
2021/11/24 10:20:10;;;;;;;;;;;;;;;;;;5037607;28;19935;-67
2021/11/24 10:22:37;;;;;;;;;;;;;;;;;;5042740;28;19925;-67
2021/11/24 10:25:04;;;;;;;;;;;;;;;;;;5045849;28;20376;-67
2021/11/24 10:27:31;;;;;;;;;;;;;;;;;;5043848;28;19983;-66
2021/11/24 10:29:58;;;;;;;;;;;;;;;;;;5042942;28;19925;-66
2021/11/24 10:32:25;;;;;;;;;;;;;;;;;;5036979;28;20405;-66
2021/11/24 10:34:52;;;;;;;;;;;;;;;;;;5038839;28;20296;-67
2021/11/24 10:37:19;;;;;;;;;;;;;;;;;;5049295;28;20015;-67
2021/11/24 10:39:47;;;;;;;;;;;;;;;;;;5039958;28;19932;-66
2021/11/24 10:42:14;;;;;;;;;;;;;;;;;;5036299;28;19932;-66
2021/11/24 10:44:41;;;;;;;;;;;;;;;;;;5042768;28;20416;-66
2021/11/24 10:47:08;;;;;;;;;;;;;;;;;;5041999;28;19925;-64
2021/11/24 10:49:35;;;;;;;;;;;;;;;;;;5042621;28;19968;-66
2021/11/24 10:52:02;;;;;;;;;;;;;;;;;;5039312;28;20298;-66
2021/11/24 10:54:29;;;;;;;;;;;;;;;;;;5035554;28;19966;-67
2021/11/24 10:56:56;;;;;;;;;;;;;;;;;;5035768;28;20335;-66
2021/11/24 10:59:23;;;;;;;;;;;;;;;;;;5041486;28;19968;-67
2021/11/24 11:01:50;;;;;;;;;;;;;;;;;;5041712;28;20052;-67
2021/11/24 11:04:17;;;;;;;;;;;;;;;;;;5039459;28;19925;-67
2021/11/24 11:06:44;;;;;;;;;;;;;;;;;;5038058;28;19924;-67
2021/11/24 11:09:10;;;;;;;;;;;;;;;;;;5040126;28;19979;-67
2021/11/24 11:11:37;;;;;;;;;;;;;;;;;;5045902;28;19936;-67
2021/11/24 11:14:04;;;;;;;;;;;;;;;;;;5039886;28;19925;-66
2021/11/24 11:16:31;;;;;;;;;;;;;;;;;;5039644;28;19935;-67
2021/11/24 11:18:58;;;;;;;;;;;;;;;;;;5039872;28;20381;-66
2021/11/24 11:21:25;;;;;;;;;;;;;;;;;;5042213;28;19935;-67
2021/11/24 11:23:52;;;;;;;;;;;;;;;;;;5048444;28;19929;-67
2021/11/24 11:26:20;;;;;;;;;;;;;;;;;;5042921;28;19926;-66
2021/11/24 11:28:47;;;;;;;;;;;;;;;;;;5038862;28;20381;-67
2021/11/24 11:31:13;;;;;;;;;;;;;;;;;;5039348;28;19925;-67
2021/11/24 11:33:40;;;;;;;;;;;;;;;;;;5040402;28;20457;-66
2021/11/24 11:36:09;;;;;;;;;;;;;;;;;;5038486;28;20288;-66
2021/11/24 11:38:35;;;;;;;;;;;;;;;;;;5041658;28;20024;-67
2021/11/24 11:41:02;;;;;;;;;;;;;;;;;;5039671;28;19925;-66
2021/11/24 11:43:29;;;;;;;;;;;;;;;;;;5046064;28;19925;-65
2021/11/24 11:45:56;;;;;;;;;;;;;;;;;;5040958;28;20258;-67
2021/11/24 11:48:23;;;;;;;;;;;;;;;;;;5042518;28;20019;-66
2021/11/24 11:50:50;;;;;;;;;;;;;;;;;;5043977;28;20411;-66
2021/11/24 11:53:18;;;;;;;;;;;;;;;;;;5038553;28;19930;-66
2021/11/24 11:55:45;;;;;;;;;;;;;;;;;;5036502;28;20400;-66
2021/11/24 11:58:12;;;;;;;;;;;;;;;;;;5038004;28;19925;-65
2021/11/24 12:00:39;;;;;;;;;;;;;;;;;;5043286;28;19925;-66
2021/11/24 12:03:06;;;;;;;;;;;;;;;;;;5048525;28;19925;-66
2021/11/24 12:05:33;;;;;;;;;;;;;;;;;;5041285;28;19951;-67
2021/11/24 12:08:00;;;;;;;;;;;;;;;;;;5043360;28;20459;-65
2021/11/24 12:10:27;;;;;;;;;;;;;;;;;;5046243;28;19932;-67
2021/11/24 12:12:54;;;;;;;;;;;;;;;;;;5044924;28;19928;-65
2021/11/24 12:15:21;;;;;;;;;;;;;;;;;;5042135;28;19931;-65
2021/11/24 12:17:48;;;;;;;;;;;;;;;;;;5040750;28;19987;-67
2021/11/24 12:20:16;;;;;;;;;;;;;;;;;;5042573;28;20025;-66
2021/11/24 12:22:43;;;;;;;;;;;;;;;;;;5049453;28;19952;-67
2021/11/24 12:25:10;;;;;;;;;;;;;;;;;;5051840;28;19924;-67
2021/11/24 12:27:37;;;;;;;;;;;;;;;;;;5040614;28;19925;-64
2021/11/24 12:30:04;;;;;;;;;;;;;;;;;;5043414;28;19933;-67
2021/11/24 12:32:31;;;;;;;;;;;;;;;;;;5043842;28;20389;-66
2021/11/24 12:34:58;;;;;;;;;;;;;;;;;;5044341;28;19961;-67
2021/11/24 12:37:25;;;;;;;;;;;;;;;;;;5043507;28;20468;-67
2021/11/24 12:39:52;;;;;;;;;;;;;;;;;;5039078;28;19925;-68
2021/11/24 12:42:19;;;;;;;;;;;;;;;;;;5045035;28;19932;-66
2021/11/24 12:44:47;;;;;;;;;;;;;;;;;;5038324;28;19932;-68
2021/11/24 12:47:14;;;;;;;;;;;;;;;;;;5048218;28;19991;-67
2021/11/24 12:49:41;;;;;;;;;;;;;;;;;;5048257;28;20016;-65
2021/11/24 12:52:08;;;;;;;;;;;;;;;;;;5053061;28;19931;-67
2021/11/24 12:54:37;;;;;;;;;;;;;;;;;;5046351;28;20306;-67
2021/11/24 12:57:04;;;;;;;;;;;;;;;;;;5040811;28;19925;-66
2021/11/24 12:59:31;;;;;;;;;;;;;;;;;;5040150;28;20437;-68
2021/11/24 13:01:58;;;;;;;;;;;;;;;;;;5038890;28;19925;-68
2021/11/24 13:04:25;;;;;;;;;;;;;;;;;;5043418;28;20004;-67
2021/11/24 13:06:52;;;;;;;;;;;;;;;;;;5045518;28;20036;-67
2021/11/24 13:09:19;;;;;;;;;;;;;;;;;;5040134;28;20012;-66
2021/11/24 13:11:49;;;;;;;;;;;;;;;;;;5047151;28;19936;-69
2021/11/24 13:14:16;;;;;;;;;;;;;;;;;;5046814;28;19932;-68
2021/11/24 13:16:43;;;;;;;;;;;;;;;;;;5046687;28;19929;-67
2021/11/24 13:19:10;;;;;;;;;;;;;;;;;;5047941;28;19996;-68
2021/11/24 13:21:37;;;;;;;;;;;;;;;;;;5048194;28;19924;-68
2021/11/24 13:24:04;;;;;;;;;;;;;;;;;;5047303;28;20300;-69
2021/11/24 13:26:31;;;;;;;;;;;;;;;;;;5049223;28;19925;-67
2021/11/24 13:28:58;;;;;;;;;;;;;;;;;;5053019;28;19992;-68
2021/11/24 13:31:24;;;;;;;;;;;;;;;;;;5050634;28;20005;-67
2021/11/24 13:33:54;;;;;;;;;;;;;;;;;;5056246;28;20211;-68
2021/11/24 13:36:21;;;;;;;;;;;;;;;;;;5043017;28;20372;-67
2021/11/24 13:38:49;;;;;;;;;;;;;;;;;;5049760;28;19925;-68
2021/11/24 13:41:16;;;;;;;;;;;;;;;;;;5042371;28;19943;-67
2021/11/24 13:43:44;;;;;;;;;;;;;;;;;;5051272;28;19932;-67
2021/11/24 13:46:11;;;;;;;;;;;;;;;;;;5050657;28;20024;-67
2021/11/24 13:48:38;;;;;;;;;;;;;;;;;;5050130;28;19925;-68
2021/11/24 13:51:05;;;;;;;;;;;;;;;;;;5050791;28;19935;-68
2021/11/24 13:53:32;;;;;;;;;;;;;;;;;;5043605;28;20024;-68
2021/11/24 13:55:59;;;;;;;;;;;;;;;;;;5046433;28;20008;-69
2021/11/24 13:58:26;;;;;;;;;;;;;;;;;;5043751;28;19935;-68
2021/11/24 14:00:53;;;;;;;;;;;;;;;;;;5046480;28;19929;-68
2021/11/24 14:03:20;;;;;;;;;;;;;;;;;;5052075;28;19928;-67
2021/11/24 14:05:47;;;;;;;;;;;;;;;;;;5046348;28;19925;-68
2021/11/24 14:08:14;;;;;;;;;;;;;;;;;;5044117;28;19960;-69
2021/11/24 14:10:41;;;;;;;;;;;;;;;;;;5047904;28;19931;-68
2021/11/24 14:13:08;;;;;;;;;;;;;;;;;;5041938;28;19925;-67
2021/11/24 14:15:35;;;;;;;;;;;;;;;;;;5043985;28;19932;-67
2021/11/24 14:18:02;;;;;;;;;;;;;;;;;;5043564;28;19935;-66
2021/11/24 14:20:29;;;;;;;;;;;;;;;;;;5037280;28;20020;-66
2021/11/24 14:22:56;;;;;;;;;;;;;;;;;;5035462;28;19929;-66
2021/11/24 14:25:23;;;;;;;;;;;;;;;;;;5051428;28;19968;-66
2021/11/24 14:27:51;;;;;;;;;;;;;;;;;;5036692;28;19925;-67
2021/11/24 14:30:18;;;;;;;;;;;;;;;;;;5045795;28;19925;-68
2021/11/24 14:32:45;;;;;;;;;;;;;;;;;;5043735;28;19933;-68
2021/11/24 14:35:12;;;;;;;;;;;;;;;;;;5046538;28;19935;-67
2021/11/24 14:37:39;;;;;;;;;;;;;;;;;;5041660;28;20336;-67
2021/11/24 14:40:06;;;;;;;;;;;;;;;;;;5034022;28;19935;-67
2021/11/24 14:42:33;;;;;;;;;;;;;;;;;;5037710;28;20508;-67
2021/11/24 14:45:01;;;;;;;;;;;;;;;;;;5037059;28;19931;-67
2021/11/24 14:47:28;;;;;;;;;;;;;;;;;;5031425;28;19932;-67
2021/11/24 14:49:55;;;;;;;;;;;;;;;;;;5043456;28;19980;-65
2021/11/24 14:52:22;;;;;;;;;;;;;;;;;;5038477;28;19929;-66
2021/11/24 14:54:49;;;;;;;;;;;;;;;;;;5041549;28;20623;-68
2021/11/24 14:57:16;;;;;;;;;;;;;;;;;;5039422;28;19925;-66
2021/11/24 14:59:43;;;;;;;;;;;;;;;;;;5044558;28;19932;-67
2021/11/24 15:02:10;;;;;;;;;;;;;;;;;;5042720;28;19929;-67
2021/11/24 15:04:37;;;;;;;;;;;;;;;;;;5046075;28;19931;-68
2021/11/24 15:07:04;;;;;;;;;;;;;;;;;;5044198;28;19960;-67
2021/11/24 15:09:31;;;;;;;;;;;;;;;;;;5046141;28;19992;-69
2021/11/24 15:11:58;;;;;;;;;;;;;;;;;;5041116;28;20016;-67
2021/11/24 15:14:25;;;;;;;;;;;;;;;;;;5037758;28;19925;-68
2021/11/24 15:16:52;;;;;;;;;;;;;;;;;;5042573;28;19933;-66
2021/11/24 15:19:19;;;;;;;;;;;;;;;;;;5041787;28;19969;-69
2021/11/24 15:21:46;;;;;;;;;;;;;;;;;;5054087;28;19975;-65
2021/11/24 15:24:13;;;;;;;;;;;;;;;;;;5043459;28;20025;-66
2021/11/24 15:26:40;;;;;;;;;;;;;;;;;;5043627;28;19925;-68
2021/11/24 15:29:08;;;;;;;;;;;;;;;;;;5037588;28;19925;-66
2021/11/24 15:31:36;;;;;;;;;;;;;;;;;;5040298;28;19929;-67
2021/11/24 15:34:03;;;;;;;;;;;;;;;;;;5041132;28;19928;-68
2021/11/24 15:36:30;;;;;;;;;;;;;;;;;;5044072;28;20023;-63
2021/11/24 15:38:57;;;;;;;;;;;;;;;;;;5043804;28;19928;-65
2021/11/24 15:41:24;;;;;;;;;;;;;;;;;;5046833;28;19931;-66
2021/11/24 15:43:51;;;;;;;;;;;;;;;;;;5046410;28;20361;-67
2021/11/24 15:46:19;;;;;;;;;;;;;;;;;;5037886;28;19925;-68
2021/11/24 15:48:46;;;;;;;;;;;;;;;;;;5043689;28;20016;-67
2021/11/24 15:51:13;;;;;;;;;;;;;;;;;;5038415;28;19929;-68
2021/11/24 15:53:46;;;;;;;;;;;;;;;;;;5039827;28;19925;-67
2021/11/24 15:56:14;;;;;;;;;;;;;;;;;;5041695;28;20015;-66
2021/11/24 15:58:41;;;;;;;;;;;;;;;;;;5043627;28;19929;-66
2021/11/24 16:01:08;;;;;;;;;;;;;;;;;;5040596;28;19954;-68
2021/11/24 16:03:35;;;;;;;;;;;;;;;;;;5045440;28;20020;-67
2021/11/24 16:06:02;;;;;;;;;;;;;;;;;;5043636;28;19940;-66
2021/11/24 16:08:29;;;;;;;;;;;;;;;;;;5047074;28;19925;-66
2021/11/24 16:10:56;;;;;;;;;;;;;;;;;;5044082;28;20392;-68
2021/11/24 16:13:23;;;;;;;;;;;;;;;;;;5036119;28;19940;-67
2021/11/24 16:15:50;;;;;;;;;;;;;;;;;;5048245;28;19931;-67
2021/11/24 16:18:18;;;;;;;;;;;;;;;;;;5049918;28;19931;-72
2021/11/24 16:20:45;;;;;;;;;;;;;;;;;;5039124;28;19932;-68
2021/11/24 16:23:12;;;;;;;;;;;;;;;;;;5043924;28;19939;-66
2021/11/24 16:25:39;;;;;;;;;;;;;;;;;;5043417;28;20020;-67
2021/11/24 16:28:06;;;;;;;;;;;;;;;;;;5041805;28;19925;-66
2021/11/24 16:30:33;;;;;;;;;;;;;;;;;;5046237;28;20020;-66
2021/11/24 16:33:00;;;;;;;;;;;;;;;;;;5037355;28;19929;-68
2021/11/24 16:35:29;;;;;;;;;;;;;;;;;;5084509;22;19924;-65
2021/11/24 16:37:56;;;;;;;;;;;;;;;;;;5082650;28;20322;-66
2021/11/24 16:40:23;;;;;;;;;;;;;;;;;;5083071;28;20010;-68
2021/11/24 16:42:50;;;;;;;;;;;;;;;;;;5087639;28;19982;-67
2021/11/24 16:45:17;;;;;;;;;;;;;;;;;;5074960;28;20028;-66
2021/11/24 16:47:44;;;;;;;;;;;;;;;;;;5076626;28;19924;-67